Time;durP1;ratioP1;P1;durP2;ratioP2;P2;SDS_P1;SDS_P2;PMS_P1;PMS_P2;Temp;Humidity;BMP_temperature;BMP_pressure;BME280_temperature;BME280_humidity;BME280_pressure;Samples;Min_cycle;Max_cycle;Signal;HPM_P1;HPM_P2
2022/10/28 00:00:16;;;;;;;16.58;5.28;;;15.90;99.90;;;;;;5092466;28;20382;-62
2022/10/28 00:02:41;;;;;;;20.42;4.70;;;15.90;99.90;;;;;;5092469;28;20436;-61
2022/10/28 00:05:07;;;;;;;10.10;3.80;;;16.00;35.20;;;;;;5093312;28;20374;-60
2022/10/28 00:07:33;;;;;;;14.02;5.10;;;16.00;32.30;;;;;;5093430;28;20403;-60
2022/10/28 00:09:58;;;;;;;10.97;4.40;;;15.90;17.10;;;;;;5092758;28;20374;-60
2022/10/28 00:12:24;;;;;;;12.80;4.35;;;15.90;99.90;;;;;;5093597;28;20370;-60
2022/10/28 00:14:50;;;;;;;13.63;4.97;;;15.90;99.90;;;;;;5092563;28;20784;-60
2022/10/28 00:17:15;;;;;;;13.17;4.53;;;15.80;1.00;;;;;;5093088;28;20441;-60
2022/10/28 00:19:41;;;;;;;11.50;4.50;;;15.80;1.00;;;;;;5092321;28;20886;-61
2022/10/28 00:22:06;;;;;;;12.70;4.87;;;15.80;1.00;;;;;;5091664;28;20389;-60
2022/10/28 00:24:32;;;;;;;12.68;4.63;;;15.70;3.80;;;;;;5093289;28;20922;-60
2022/10/28 00:26:58;;;;;;;13.47;4.27;;;15.80;1.00;;;;;;5092166;28;20469;-60
2022/10/28 00:29:23;;;;;;;10.77;4.25;;;15.80;1.00;;;;;;5092880;28;20370;-60
2022/10/28 00:31:51;;;;;;;11.02;4.35;;;15.70;90.50;;;;;;5092106;28;20416;-62
2022/10/28 00:34:20;;;;;;;13.68;4.47;;;15.60;99.90;;;;;;5093159;28;20405;-62
2022/10/28 00:36:46;;;;;;;9.63;4.03;;;15.70;99.90;;;;;;5092158;28;20406;-62
2022/10/28 00:39:14;;;;;;;11.80;4.67;;;15.70;1.00;;;;;;5092758;28;20370;-62
2022/10/28 00:41:46;;;;;;;13.10;4.63;;;15.60;1.00;;;;;;5091859;28;20478;-63
2022/10/28 00:44:42;;;;;;;10.30;4.50;;;15.70;1.00;;;;;;5093084;28;20735;-62
2022/10/28 00:47:34;;;;;;;12.73;4.17;;;15.80;99.90;;;;;;5092548;28;20405;-62
2022/10/28 00:50:26;;;;;;;16.15;4.38;;;15.80;99.90;;;;;;5092088;28;20899;-62
2022/10/28 00:52:57;;;;;;;10.23;4.32;;;15.90;2.60;;;;;;5080723;28;20755;-62
2022/10/28 00:55:24;;;;;;;10.55;4.30;;;15.90;1.00;;;;;;5092067;28;20820;-60
2022/10/28 00:57:55;;;;;;;10.93;4.80;;;15.90;4.40;;;;;;5091167;28;20744;-61
2022/10/28 01:00:21;;;;;;;12.38;4.50;;;15.80;9.10;;;;;;5092154;28;20390;-60
2022/10/28 01:02:48;;;;;;;10.37;4.70;;;15.80;1.00;;;;;;5091800;28;20397;-60
2022/10/28 01:05:18;;;;;;;13.80;4.75;;;15.80;4.00;;;;;;5092813;28;20441;-60
2022/10/28 01:07:44;;;;;;;9.68;4.53;;;15.70;99.90;;;;;;5091440;28;20374;-60
2022/10/28 01:10:11;;;;;;;10.40;4.18;;;15.70;99.90;;;;;;5092247;28;20374;-61
2022/10/28 01:13:02;;;;;;;11.07;4.35;;;15.60;1.00;;;;;;5092610;28;20371;-60
2022/10/28 01:16:26;;;;;;;11.45;3.92;;;15.60;1.00;;;;;;5092198;28;20382;-60
2022/10/28 01:19:03;;;;;;;14.63;4.80;;;15.50;99.90;;;;;;5001099;28;20395;-60
2022/10/28 01:21:41;;;;;;;13.05;3.85;;;15.50;99.90;;;;;;5091892;28;20478;-62
2022/10/28 01:24:35;;;;;;;10.90;4.25;;;15.40;99.90;;;;;;5091755;28;20389;-62
2022/10/28 01:27:19;;;;;;;12.32;4.40;;;15.40;99.90;;;;;;5091281;28;20459;-62
2022/10/28 01:30:03;;;;;;;10.27;4.22;;;15.40;1.00;;;;;;5091005;28;20413;-62
2022/10/28 01:32:35;;;;;;;11.70;4.55;;;15.30;1.00;;;;;;5091675;28;20434;-60
2022/10/28 01:35:17;;;;;;;11.63;4.77;;;15.20;99.90;;;;;;5091361;28;20390;-60
2022/10/28 01:38:22;;;;;;;16.05;4.93;;;15.10;99.90;;;;;;5091046;28;20421;-62
2022/10/28 01:41:05;;;;;;;11.52;4.60;;;15.00;1.00;;;;;;5066731;28;20435;-60
2022/10/28 01:43:56;;;;;;;10.93;3.97;;;15.00;1.00;;;;;;5070939;28;20868;-60
2022/10/28 01:46:33;;;;;;;13.10;4.13;;;14.90;1.00;;;;;;5061913;28;20421;-60
2022/10/28 01:49:09;;;;;;;10.38;3.78;;;14.90;1.00;;;;;;5070756;28;20421;-60
2022/10/28 01:51:40;;;;;;;14.10;4.80;;;15.00;1.00;;;;;;5071104;28;20408;-60
2022/10/28 01:54:07;;;;;;;11.43;4.30;;;15.00;1.00;;;;;;5070991;28;20458;-60
2022/10/28 01:56:39;;;;;;;13.77;4.60;;;14.90;1.00;;;;;;5070610;28;20398;-60
2022/10/28 01:59:08;;;;;;;10.70;4.40;;;14.80;18.70;;;;;;5070744;28;20849;-60
2022/10/28 02:01:35;;;;;;;13.05;4.57;;;14.70;99.90;;;;;;5071069;28;20845;-59
2022/10/28 02:04:01;;;;;;;11.65;4.60;;;14.70;99.90;;;;;;5069829;28;20404;-61
2022/10/28 02:06:29;;;;;;;13.07;4.50;;;14.70;99.90;;;;;;5070971;28;20459;-60
2022/10/28 02:09:03;;;;;;;11.10;4.45;;;14.60;99.90;;;;;;5069999;28;20428;-60
2022/10/28 02:11:53;;;;;;;13.10;4.38;;;14.70;99.90;;;;;;5070910;28;20709;-60
2022/10/28 02:14:37;;;;;;;14.00;4.70;;;14.70;99.90;;;;;;5070900;28;20421;-60
2022/10/28 02:17:18;;;;;;;13.70;4.57;;;14.70;99.90;;;;;;5069431;28;20454;-60
2022/10/28 02:20:08;;;;;;;12.02;4.30;;;14.60;99.90;;;;;;5069927;28;20402;-61
2022/10/28 02:22:46;;;;;;;13.10;4.60;;;14.60;99.90;;;;;;5070802;28;20459;-60
2022/10/28 02:25:15;;;;;;;10.10;4.50;;;14.60;99.90;;;;;;5070681;28;20375;-60
2022/10/28 02:28:06;;;;;;;11.50;5.20;;;14.70;99.90;;;;;;5070165;28;20392;-61
2022/10/28 02:30:56;;;;;;;14.35;4.85;;;14.70;99.90;;;;;;5070612;28;20376;-60
2022/10/28 02:33:30;;;;;;;12.55;5.22;;;14.80;99.90;;;;;;5069447;28;20808;-59
2022/10/28 02:36:15;;;;;;;14.75;5.30;;;14.70;99.90;;;;;;5069534;28;20424;-60
2022/10/28 02:38:49;;;;;;;13.15;4.90;;;14.70;99.90;;;;;;5070380;28;20371;-61
2022/10/28 02:41:43;;;;;;;10.45;4.47;;;14.70;99.90;;;;;;5070511;28;20485;-60
2022/10/28 02:44:14;;;;;;;12.90;4.80;;;14.70;99.90;;;;;;5070178;28;20376;-59
2022/10/28 02:46:43;;;;;;;12.48;5.20;;;14.80;99.90;;;;;;5081613;28;20890;-60
2022/10/28 02:49:13;;;;;;;14.95;5.57;;;14.70;99.90;;;;;;5090033;28;20858;-59
2022/10/28 02:51:52;;;;;;;12.13;5.28;;;14.70;99.90;;;;;;5090372;28;20419;-60
2022/10/28 02:54:27;;;;;;;14.20;5.77;;;14.60;99.90;;;;;;5090305;28;20516;-61
2022/10/28 02:57:13;;;;;;;12.02;5.07;;;14.70;99.90;;;;;;5089673;28;20408;-60
2022/10/28 02:59:39;;;;;;;13.48;5.10;;;14.60;99.90;;;;;;5090187;28;20473;-60
2022/10/28 03:02:05;;;;;;;14.10;4.57;;;14.70;99.90;;;;;;5089253;28;20408;-60
2022/10/28 03:04:31;;;;;;;11.67;4.73;;;14.80;99.90;;;;;;5090675;28;20719;-60
2022/10/28 03:06:56;;;;;;;10.07;4.97;;;14.90;99.90;;;;;;5087561;28;20511;-60
2022/10/28 03:09:22;;;;;;;10.82;5.10;;;15.00;14.00;;;;;;5089708;28;20705;-61
2022/10/28 03:11:47;;;;;;;15.00;5.80;;;15.10;1.00;;;;;;5089536;28;20440;-60
2022/10/28 03:14:13;;;;;;;11.07;4.40;;;15.10;1.00;;;;;;5087363;28;20401;-60
2022/10/28 03:16:38;;;;;;;15.70;5.57;;;15.10;1.00;;;;;;5087326;28;20519;-62
2022/10/28 03:19:04;;;;;;;12.30;5.30;;;15.10;1.00;;;;;;5088958;28;20374;-60
2022/10/28 03:21:30;;;;;;;9.95;4.45;;;15.10;1.00;;;;;;5090100;28;20892;-60
2022/10/28 03:23:55;;;;;;;16.67;5.60;;;15.10;1.00;;;;;;5089544;28;20386;-60
2022/10/28 03:26:21;;;;;;;12.27;4.77;;;15.10;1.00;;;;;;5088535;28;20478;-61
2022/10/28 03:28:46;;;;;;;14.10;4.70;;;15.30;99.90;;;;;;5084664;28;20381;-61
2022/10/28 03:31:14;;;;;;;12.90;4.20;;;15.50;99.90;;;;;;5089075;28;20863;-62
2022/10/28 03:33:39;;;;;;;12.13;5.30;;;15.60;1.00;;;;;;5089452;28;20428;-63
2022/10/28 03:36:05;;;;;;;11.67;4.90;;;15.60;99.90;;;;;;5088923;28;20495;-62
2022/10/28 03:38:31;;;;;;;11.30;5.07;;;15.60;99.90;;;;;;5089675;28;20378;-62
2022/10/28 03:40:57;;;;;;;11.13;4.55;;;15.50;99.90;;;;;;5088521;28;21324;-62
2022/10/28 03:43:23;;;;;;;13.90;4.70;;;15.50;99.90;;;;;;5089764;28;20398;-60
2022/10/28 03:45:49;;;;;;;10.93;4.90;;;15.30;1.00;;;;;;5087386;28;20835;-60
2022/10/28 03:48:14;;;;;;;13.10;5.40;;;15.30;99.90;;;;;;5089445;28;20381;-60
2022/10/28 03:50:40;;;;;;;12.63;5.03;;;15.30;99.90;;;;;;5089502;28;20839;-60
2022/10/28 03:53:05;;;;;;;10.90;4.70;;;15.40;99.90;;;;;;5081380;28;20426;-60
2022/10/28 03:55:31;;;;;;;10.88;4.70;;;15.40;49.90;;;;;;5080313;28;20846;-60
2022/10/28 03:57:59;;;;;;;10.60;4.60;;;15.50;68.70;;;;;;5085451;28;20543;-60
2022/10/28 04:00:25;;;;;;;12.05;4.93;;;15.40;99.90;;;;;;5089473;28;20383;-57
2022/10/28 04:03:01;;;;;;;15.05;4.45;;;15.50;1.00;;;;;;5071434;28;20493;-58
2022/10/28 04:05:39;;;;;;;12.30;4.63;;;15.50;99.90;;;;;;5051137;28;21013;-58
2022/10/28 04:08:04;;;;;;;12.57;5.43;;;15.50;99.90;;;;;;5068509;28;20390;-58
2022/10/28 04:10:30;;;;;;;13.13;5.05;;;15.60;99.90;;;;;;5069017;28;20380;-57
2022/10/28 04:13:04;;;;;;;14.53;5.30;;;15.40;99.90;;;;;;5083901;28;20383;-57
2022/10/28 04:15:30;;;;;;;15.57;5.35;;;15.20;99.90;;;;;;5069077;28;20387;-57
2022/10/28 04:17:56;;;;;;;12.85;4.95;;;15.40;99.90;;;;;;5068258;28;20407;-58
2022/10/28 04:20:22;;;;;;;16.40;5.43;;;15.20;1.00;;;;;;5069249;28;20534;-58
2022/10/28 04:22:48;;;;;;;12.80;5.20;;;15.20;1.00;;;;;;5067974;28;20902;-58
2022/10/28 04:25:14;;;;;;;11.90;5.20;;;15.70;1.00;;;;;;5068988;28;20384;-57
2022/10/28 04:27:39;;;;;;;12.68;5.43;;;15.20;1.00;;;;;;5070415;28;20375;-60
2022/10/28 04:30:06;;;;;;;13.30;5.10;;;15.10;1.00;;;;;;5071761;28;20408;-60
2022/10/28 04:32:31;;;;;;;12.40;4.80;;;15.10;1.00;;;;;;5071914;28;20415;-60
2022/10/28 04:34:57;;;;;;;12.10;5.37;;;15.00;25.20;;;;;;5071612;28;20391;-60
2022/10/28 04:37:22;;;;;;;13.32;5.57;;;14.90;75.70;;;;;;5072448;28;20758;-59
2022/10/28 04:39:48;;;;;;;12.57;5.70;;;14.90;99.90;;;;;;5072659;28;20387;-60
2022/10/28 04:42:14;;;;;;;10.43;5.20;;;14.90;99.90;;;;;;5092564;28;20369;-60
2022/10/28 04:44:39;;;;;;;13.13;5.07;;;14.90;99.90;;;;;;5092679;28;20444;-60
2022/10/28 04:47:05;;;;;;;12.30;5.53;;;15.00;80.40;;;;;;5091627;28;20443;-60
2022/10/28 04:49:30;;;;;;;13.10;5.00;;;15.00;1.00;;;;;;5108047;28;20386;-60
2022/10/28 04:51:56;;;;;;;11.32;5.35;;;15.10;1.00;;;;;;5091780;28;20413;-60
2022/10/28 04:54:22;;;;;;;11.68;5.22;;;15.20;1.00;;;;;;5092615;28;20440;-62
2022/10/28 04:56:47;;;;;;;12.63;5.50;;;15.30;1.00;;;;;;5092072;28;20769;-60
2022/10/28 04:59:13;;;;;;;14.23;5.20;;;15.40;1.00;;;;;;5092416;28;20402;-60
2022/10/28 05:01:38;;;;;;;13.00;5.25;;;15.40;99.90;;;;;;5091969;28;20447;-60
2022/10/28 05:04:04;;;;;;;11.33;5.40;;;15.50;99.90;;;;;;5092387;28;20374;-60
2022/10/28 05:06:30;;;;;;;14.23;5.20;;;15.50;99.90;;;;;;5108363;28;20727;-60
2022/10/28 05:08:55;;;;;;;14.23;5.45;;;15.40;99.90;;;;;;5091464;28;20419;-60
2022/10/28 05:11:21;;;;;;;14.40;5.60;;;15.30;99.90;;;;;;5092896;28;20545;-61
2022/10/28 05:13:47;;;;;;;17.30;5.70;;;15.30;1.00;;;;;;5092003;28;20431;-61
2022/10/28 05:16:12;;;;;;;14.10;5.60;;;15.20;1.00;;;;;;5091897;28;20948;-61
2022/10/28 05:18:38;;;;;;;14.43;5.37;;;15.00;73.50;;;;;;5091995;28;20378;-62
2022/10/28 05:21:04;;;;;;;17.40;5.17;;;15.00;99.90;;;;;;5091745;28;20449;-62
2022/10/28 05:23:29;;;;;;;14.88;5.30;;;14.90;99.90;;;;;;5091554;28;20386;-61
2022/10/28 05:25:55;;;;;;;13.23;5.07;;;14.90;99.90;;;;;;5090960;28;20798;-60
2022/10/28 05:28:20;;;;;;;14.73;5.37;;;14.90;99.90;;;;;;5091985;28;20910;-60
2022/10/28 05:30:46;;;;;;;13.75;4.95;;;14.90;99.90;;;;;;5091018;28;20384;-61
2022/10/28 05:33:12;;;;;;;10.73;4.68;;;14.90;99.90;;;;;;5091505;28;20398;-60
2022/10/28 05:35:38;;;;;;;13.40;4.70;;;14.80;99.90;;;;;;5091610;28;20464;-60
2022/10/28 05:38:04;;;;;;;14.88;4.70;;;14.80;99.90;;;;;;5091153;28;20770;-59
2022/10/28 05:40:31;;;;;;;9.32;4.35;;;14.70;99.90;;;;;;5090815;28;20375;-61
2022/10/28 05:42:57;;;;;;;11.35;4.63;;;14.70;99.90;;;;;;5090305;28;20742;-59
2022/10/28 05:45:23;;;;;;;12.82;4.40;;;14.70;99.90;;;;;;5091426;28;20374;-59
2022/10/28 05:47:48;;;;;;;13.60;4.38;;;14.70;99.90;;;;;;5091662;28;20407;-59
2022/10/28 05:50:17;;;;;;;11.07;5.00;;;14.60;99.90;;;;;;5091151;28;20378;-58
2022/10/28 05:52:50;;;;;;;13.00;4.50;;;14.60;99.90;;;;;;5091390;28;20404;-59
2022/10/28 05:55:18;;;;;;;11.00;4.60;;;14.60;99.90;;;;;;5091660;28;20452;-60
2022/10/28 05:57:45;;;;;;;10.45;4.10;;;14.60;99.90;;;;;;5091367;28;20489;-61
2022/10/28 06:00:12;;;;;;;12.00;4.10;;;14.60;99.90;;;;;;5090700;28;20980;-59
2022/10/28 06:02:37;;;;;;;11.23;4.07;;;14.60;99.90;;;;;;5073062;28;20404;-59
2022/10/28 06:05:03;;;;;;;14.20;4.73;;;14.60;99.90;;;;;;5082153;28;20395;-61
2022/10/28 06:07:29;;;;;;;12.00;4.20;;;14.70;99.90;;;;;;5091373;28;20390;-61
2022/10/28 06:09:55;;;;;;;11.93;4.40;;;14.80;42.30;;;;;;5090788;28;20370;-61
2022/10/28 06:12:20;;;;;;;11.55;4.32;;;14.80;1.00;;;;;;5091108;28;20414;-61
2022/10/28 06:14:46;;;;;;;11.17;4.90;;;14.80;1.00;;;;;;5090270;28;20434;-62
2022/10/28 06:17:11;;;;;;;14.40;5.10;;;14.90;1.00;;;;;;5090414;28;20449;-61
2022/10/28 06:19:37;;;;;;;12.23;5.00;;;15.00;1.00;;;;;;5090476;28;20377;-61
2022/10/28 06:22:03;;;;;;;10.98;4.65;;;15.00;1.00;;;;;;5089398;28;20387;-61
2022/10/28 06:24:28;;;;;;;12.47;5.13;;;14.90;1.00;;;;;;5090833;28;20389;-61
2022/10/28 06:26:54;;;;;;;12.03;4.33;;;14.90;1.00;;;;;;5089980;28;20385;-61
2022/10/28 06:29:20;;;;;;;15.55;4.50;;;14.90;1.00;;;;;;5091033;28;20715;-61
2022/10/28 06:31:46;;;;;;;15.70;4.80;;;14.90;1.00;;;;;;5091016;28;20451;-62
2022/10/28 06:34:11;;;;;;;12.27;5.03;;;14.90;1.00;;;;;;5090973;28;20402;-61
2022/10/28 06:36:38;;;;;;;11.20;4.57;;;14.90;1.00;;;;;;5090385;28;20426;-61
2022/10/28 06:39:06;;;;;;;11.27;4.78;;;14.90;1.00;;;;;;5089003;28;21271;-60
2022/10/28 06:41:31;;;;;;;12.00;4.30;;;14.80;1.00;;;;;;5090120;28;20786;-60
2022/10/28 06:43:57;;;;;;;13.63;4.27;;;14.80;1.00;;;;;;5089772;28;20386;-59
2022/10/28 06:46:22;;;;;;;12.50;4.50;;;14.80;1.00;;;;;;5090266;28;20404;-60
2022/10/28 06:48:48;;;;;;;12.60;4.20;;;14.80;1.00;;;;;;5090054;28;20370;-62
2022/10/28 06:51:15;;;;;;;13.20;4.40;;;14.90;1.00;;;;;;5089652;28;20448;-60
2022/10/28 06:53:41;;;;;;;12.93;4.25;;;15.10;99.90;;;;;;5090680;28;20378;-60
2022/10/28 06:56:08;;;;;;;11.07;4.13;;;15.20;19.90;;;;;;5089363;28;20958;-61
2022/10/28 06:58:34;;;;;;;13.70;4.40;;;15.40;1.00;;;;;;5090287;28;20847;-61
2022/10/28 07:01:03;;;;;;;11.90;4.70;;;15.40;99.90;;;;;;5089599;28;20429;-61
2022/10/28 07:03:29;;;;;;;10.68;3.97;;;15.50;1.00;;;;;;5089942;28;20579;-61
2022/10/28 07:05:54;;;;;;;13.93;4.77;;;15.60;99.90;;;;;;5089231;28;20465;-61
2022/10/28 07:08:20;;;;;;;13.90;5.00;;;15.60;99.90;;;;;;5090546;28;20362;-61
2022/10/28 07:10:59;;;;;;;12.87;5.00;;;15.60;90.10;;;;;;5089918;28;20418;-61
2022/10/28 07:13:25;;;;;;;13.32;6.30;;;15.60;1.00;;;;;;5090737;28;20431;-61
2022/10/28 07:15:56;;;;;;;14.50;4.78;;;15.60;1.00;;;;;;5089640;28;20370;-62
2022/10/28 07:18:23;;;;;;;13.02;4.70;;;15.60;4.00;;;;;;5090596;28;20758;-61
2022/10/28 07:20:49;;;;;;;13.68;5.28;;;15.80;1.00;;;;;;5089937;28;20777;-63
2022/10/28 07:23:15;;;;;;;12.32;4.28;;;16.10;99.90;;;;;;5089904;28;20411;-61
2022/10/28 07:25:40;;;;;;;12.80;4.50;;;16.40;1.00;;;;;;5090591;28;20445;-61
2022/10/28 07:28:06;;;;;;;11.70;4.67;;;16.60;1.00;;;;;;5089604;28;20735;-61
2022/10/28 07:30:32;;;;;;;13.65;5.30;;;16.90;99.90;;;;;;5089550;28;20374;-61
2022/10/28 07:32:59;;;;;;;11.93;5.15;;;;;;;;;;5088780;28;20453;-58
2022/10/28 07:35:29;;;;;;;11.93;5.20;;;17.90;1.00;;;;;;5090031;28;20394;-59
2022/10/28 07:37:55;;;;;;;13.37;4.93;;;18.90;1.00;;;;;;5088728;28;20398;-61
2022/10/28 07:40:22;;;;;;;10.05;4.78;;;20.10;1.00;;;;;;5090078;28;20389;-62
2022/10/28 07:42:47;;;;;;;10.73;4.80;;;20.90;1.00;;;;;;5089209;28;20420;-62
2022/10/28 07:45:13;;;;;;;11.90;4.83;;;20.60;1.00;;;;;;5089600;28;20847;-59
2022/10/28 07:47:38;;;;;;;14.23;4.80;;;19.80;1.00;;;;;;5089636;28;20378;-59
2022/10/28 07:50:05;;;;;;;12.82;4.70;;;19.10;1.00;;;;;;5088941;28;20409;-59
2022/10/28 07:52:32;;;;;;;18.05;5.25;;;18.50;1.00;;;;;;5089624;28;20374;-59
2022/10/28 07:54:57;;;;;;;11.70;4.90;;;18.20;1.00;;;;;;5089260;28;20410;-59
2022/10/28 07:57:23;;;;;;;11.87;4.60;;;17.90;1.00;;;;;;5089469;28;20754;-59
2022/10/28 07:59:49;;;;;;;11.70;4.40;;;17.70;1.00;;;;;;5089240;28;20906;-63
2022/10/28 08:02:20;;;;;;;12.65;4.30;;;17.60;1.00;;;;;;5090280;28;20420;-61
2022/10/28 08:04:45;;;;;;;10.23;4.28;;;17.50;1.00;;;;;;5093437;28;20713;-61
2022/10/28 08:07:12;;;;;;;13.27;4.70;;;17.40;1.00;;;;;;5092766;28;20373;-61
2022/10/28 08:09:38;;;;;;;11.70;4.03;;;17.40;1.00;;;;;;5075467;28;20382;-61
2022/10/28 08:12:05;;;;;;;11.80;4.30;;;17.40;1.00;;;;;;5074992;28;20723;-61
2022/10/28 08:14:31;;;;;;;11.50;4.37;;;17.50;1.00;;;;;;5093026;28;20385;-61
2022/10/28 08:16:56;;;;;;;11.02;4.65;;;17.40;1.00;;;;;;5092639;28;20406;-61
2022/10/28 08:19:22;;;;;;;10.40;4.10;;;17.50;1.00;;;;;;5093003;28;20374;-61
2022/10/28 08:21:47;;;;;;;15.70;4.50;;;17.60;1.00;;;;;;5092932;28;20373;-61
2022/10/28 08:24:13;;;;;;;11.27;5.00;;;17.80;1.00;;;;;;5092479;28;20381;-59
2022/10/28 08:26:39;;;;;;;14.98;5.30;;;18.00;1.00;;;;;;5093157;28;20383;-59
2022/10/28 08:29:05;;;;;;;13.23;5.30;;;18.20;1.00;;;;;;5092887;28;20474;-59
2022/10/28 08:31:32;;;;;;;19.35;8.38;;;18.40;1.00;;;;;;5092834;28;20382;-59
2022/10/28 08:33:58;;;;;;;12.57;5.10;;;18.50;1.00;;;;;;5089915;28;20410;-59
2022/10/28 08:36:24;;;;;;;11.23;4.63;;;18.30;1.00;;;;;;5092682;28;20432;-59
2022/10/28 08:38:50;;;;;;;10.80;4.10;;;18.10;1.00;;;;;;5092262;28;20469;-59
2022/10/28 08:41:37;;;;;;;13.98;3.70;;;18.00;1.00;;;;;;5092768;28;20371;-59
2022/10/28 08:44:24;;;;;;;9.57;4.00;;;17.90;1.00;;;;;;5071937;28;20366;-59
2022/10/28 08:47:02;;;;;;;13.48;3.90;;;18.10;1.00;;;;;;5072128;28;20383;-61
2022/10/28 08:49:30;;;;;;;9.80;4.33;;;18.10;1.00;;;;;;5072580;28;20384;-59
2022/10/28 08:52:04;;;;;;;11.25;3.60;;;18.20;1.00;;;;;;5087850;28;20401;-59
2022/10/28 08:54:41;;;;;;;15.88;5.25;;;18.20;1.00;;;;;;5092369;28;20379;-59
2022/10/28 08:57:15;;;;;;;10.68;4.38;;;18.20;1.00;;;;;;5091790;28;20402;-59
2022/10/28 08:59:43;;;;;;;13.35;4.78;;;18.40;1.00;;;;;;5092236;28;20435;-59
2022/10/28 09:02:22;;;;;;;12.45;4.35;;;18.80;1.00;;;;;;5091662;28;20452;-59
2022/10/28 09:05:03;;;;;;;14.05;4.85;;;19.10;1.00;;;;;;5092227;28;20386;-59
2022/10/28 09:07:32;;;;;;;12.90;4.13;;;19.20;1.00;;;;;;5092113;28;20977;-59
2022/10/28 09:09:58;;;;;;;11.10;4.10;;;19.30;1.00;;;;;;5091281;28;20395;-59
2022/10/28 09:12:26;;;;;;;12.02;4.10;;;19.40;1.00;;;;;;5091743;28;20851;-59
2022/10/28 09:15:29;;;;;;;14.60;4.90;;;19.20;1.00;;;;;;5089724;28;20906;-61
2022/10/28 09:17:59;;;;;;;11.25;3.97;;;19.30;1.00;;;;;;5091509;28;20402;-59
2022/10/28 09:20:46;;;;;;;14.70;4.60;;;19.00;1.00;;;;;;5091857;28;20386;-59
2022/10/28 09:23:28;;;;;;;9.85;4.50;;;19.00;1.00;;;;;;5091519;28;20469;-59
2022/10/28 09:26:05;;;;;;;11.20;4.00;;;19.00;1.00;;;;;;5090782;28;20896;-60
2022/10/28 09:28:42;;;;;;;10.18;3.53;;;18.70;1.00;;;;;;5091695;28;20386;-59
2022/10/28 09:31:34;;;;;;;12.70;4.30;;;18.60;1.00;;;;;;5090801;28;20389;-59
2022/10/28 09:34:26;;;;;;;12.80;4.40;;;18.60;1.00;;;;;;5090390;28;20432;-59
2022/10/28 09:37:05;;;;;;;11.35;4.22;;;18.60;1.00;;;;;;5091174;28;20409;-61
2022/10/28 09:39:40;;;;;;;11.48;4.18;;;18.80;1.00;;;;;;5091629;28;20377;-59
2022/10/28 09:42:11;;;;;;;11.95;4.47;;;19.00;1.00;;;;;;5090522;28;20406;-59
2022/10/28 09:44:51;;;;;;;17.55;4.47;;;19.10;1.00;;;;;;5091603;28;20382;-59
2022/10/28 09:47:26;;;;;;;11.55;4.00;;;19.00;1.00;;;;;;5091860;28;20359;-59
2022/10/28 09:49:55;;;;;;;14.48;4.03;;;19.30;1.00;;;;;;5090580;28;20381;-61
2022/10/28 09:52:29;;;;;;;17.00;4.80;;;19.60;1.00;;;;;;5091561;28;20858;-59
2022/10/28 09:54:57;;;;;;;11.40;3.70;;;20.00;1.00;;;;;;5090843;28;20370;-60
2022/10/28 09:57:29;;;;;;;12.57;4.22;;;20.10;1.00;;;;;;5091059;28;20398;-59
2022/10/28 09:59:55;;;;;;;15.48;4.63;;;20.30;1.00;;;;;;5090119;28;20389;-62
2022/10/28 10:02:27;;;;;;;18.03;4.90;;;20.80;1.00;;;;;;5091031;28;20382;-62
2022/10/28 10:04:56;;;;;;;10.48;4.00;;;21.30;1.00;;;;;;5090188;28;20430;-62
2022/10/28 10:07:35;;;;;;;12.88;4.32;;;21.70;1.00;;;;;;5091332;28;20401;-62
2022/10/28 10:10:06;;;;;;;11.30;4.57;;;21.80;1.00;;;;;;5090433;28;20382;-62
2022/10/28 10:12:32;;;;;;;12.70;4.20;;;22.00;1.00;;;;;;5090973;28;20379;-62
2022/10/28 10:14:58;;;;;;;12.65;4.40;;;22.60;1.00;;;;;;5090351;28;20426;-61
2022/10/28 10:17:36;;;;;;;16.92;4.60;;;23.30;1.00;;;;;;5091106;28;20401;-62
2022/10/28 10:20:09;;;;;;;12.05;3.85;;;23.40;1.00;;;;;;5089948;28;20379;-59
2022/10/28 10:22:40;;;;;;;11.27;4.20;;;23.20;1.00;;;;;;5090604;28;20389;-59
2022/10/28 10:25:17;;;;;;;12.60;4.87;;;22.90;1.00;;;;;;5089913;28;20370;-62
2022/10/28 10:27:58;;;;;;;10.10;4.40;;;22.50;1.00;;;;;;5091039;28;20378;-62
2022/10/28 10:30:33;;;;;;;11.68;4.50;;;22.00;1.00;;;;;;5090857;28;20362;-62
2022/10/28 10:33:01;;;;;;;13.95;4.07;;;21.60;1.00;;;;;;5089456;28;20429;-59
2022/10/28 10:35:31;;;;;;;14.48;4.45;;;21.10;1.00;;;;;;5090561;28;20389;-59
2022/10/28 10:37:59;;;;;;;13.40;4.90;;;20.80;1.00;;;;;;5089639;28;20397;-59
2022/10/28 10:40:37;;;;;;;13.90;4.75;;;20.60;1.00;;;;;;5090478;28;20386;-59
2022/10/28 10:43:17;;;;;;;15.43;4.15;;;20.40;1.00;;;;;;5089792;28;20386;-59
2022/10/28 10:45:59;;;;;;;12.52;4.22;;;20.40;1.00;;;;;;5090566;28;20412;-59
2022/10/28 10:48:25;;;;;;;11.38;4.35;;;20.60;1.00;;;;;;5090272;28;20386;-59
2022/10/28 10:50:52;;;;;;;13.45;4.18;;;20.70;1.00;;;;;;5090460;28;20386;-64
2022/10/28 10:53:27;;;;;;;15.77;4.40;;;21.00;1.00;;;;;;5090312;28;20386;-59
2022/10/28 10:56:07;;;;;;;12.10;4.60;;;21.40;1.00;;;;;;5089826;28;20382;-61
2022/10/28 10:58:37;;;;;;;9.63;3.95;;;21.60;1.00;;;;;;5089852;28;20415;-59
2022/10/28 11:01:06;;;;;;;12.50;4.18;;;21.60;1.00;;;;;;5089029;28;20427;-59
2022/10/28 11:03:35;;;;;;;12.43;4.40;;;21.60;1.00;;;;;;5090210;28;20401;-60
2022/10/28 11:06:03;;;;;;;8.60;3.40;;;21.90;1.00;;;;;;5090018;28;20374;-59
2022/10/28 11:08:43;;;;;;;11.93;4.05;;;22.00;1.00;;;;;;5090295;28;20423;-59
2022/10/28 11:11:13;;;;;;;11.93;4.70;;;21.90;1.00;;;;;;5089416;28;20374;-59
2022/10/28 11:13:40;;;;;;;13.70;4.53;;;21.90;1.00;;;;;;5089885;28;20378;-59
2022/10/28 11:16:17;;;;;;;16.35;4.50;;;21.70;1.00;;;;;;5089669;28;20366;-59
2022/10/28 11:18:45;;;;;;;13.77;5.00;;;21.70;1.00;;;;;;5090186;28;20386;-59
2022/10/28 11:21:41;;;;;;;11.30;4.53;;;21.50;1.00;;;;;;5088619;28;20391;-59
2022/10/28 11:24:19;;;;;;;14.85;4.60;;;21.40;1.00;;;;;;5088900;28;20393;-59
2022/10/28 11:26:57;;;;;;;14.00;4.60;;;21.30;1.00;;;;;;5089678;28;20447;-62
2022/10/28 11:29:23;;;;;;;12.15;4.10;;;21.50;1.00;;;;;;5090480;28;20404;-62
2022/10/28 11:32:15;;;;;;;14.63;4.32;;;21.70;1.00;;;;;;5105822;28;20397;-62
2022/10/28 11:34:43;;;;;;;14.18;4.05;;;21.80;1.00;;;;;;5071437;28;20875;-62
2022/10/28 11:37:42;;;;;;;12.60;3.90;;;21.90;1.00;;;;;;5089542;28;20410;-62
2022/10/28 11:40:29;;;;;;;15.32;4.80;;;22.00;1.00;;;;;;5093268;28;20421;-62
2022/10/28 11:43:27;;;;;;;12.48;4.53;;;22.00;1.00;;;;;;5092711;28;20494;-64
2022/10/28 11:45:59;;;;;;;8.98;3.90;;;22.10;1.00;;;;;;5037576;28;20397;-62
2022/10/28 11:48:40;;;;;;;13.30;4.10;;;22.00;1.00;;;;;;5094283;28;20457;-61
2022/10/28 11:51:10;;;;;;;18.17;4.68;;;21.90;1.00;;;;;;5093130;28;20378;-60
2022/10/28 11:53:51;;;;;;;10.20;3.80;;;21.70;1.00;;;;;;5093541;28;20489;-59
2022/10/28 11:56:31;;;;;;;11.32;3.95;;;21.50;1.00;;;;;;5093020;28;20453;-59
2022/10/28 11:59:28;;;;;;;11.77;3.65;;;21.50;1.00;;;;;;5092565;28;20388;-62
2022/10/28 12:02:20;;;;;;;15.35;4.90;;;21.50;1.00;;;;;;5093062;28;20527;-61
2022/10/28 12:04:54;;;;;;;8.93;3.30;;;21.60;1.00;;;;;;5093855;28;20386;-59
2022/10/28 12:07:26;;;;;;;13.10;4.00;;;21.50;1.00;;;;;;5093816;28;20441;-59
2022/10/28 12:10:01;;;;;;;11.48;3.22;;;21.40;1.00;;;;;;5092811;28;20477;-61
2022/10/28 12:13:25;;;;;;;9.68;3.65;;;21.40;1.00;;;;;;5084101;28;20402;-59
2022/10/28 12:16:13;;;;;;;11.50;3.35;;;21.60;1.00;;;;;;5046743;28;20414;-59
2022/10/28 12:19:11;;;;;;;12.40;3.30;;;22.00;1.00;;;;;;5092420;28;20732;-62
2022/10/28 12:21:40;;;;;;;12.95;3.38;;;22.20;1.00;;;;;;5093371;28;20432;-59
2022/10/28 12:24:17;;;;;;;11.52;3.75;;;22.70;1.00;;;;;;5092496;28;20382;-60
2022/10/28 12:26:47;;;;;;;12.77;3.60;;;22.90;1.00;;;;;;5088930;28;20382;-59
2022/10/28 12:29:20;;;;;;;11.45;3.28;;;22.90;1.00;;;;;;5089755;28;20374;-60
2022/10/28 12:32:15;;;;;;;9.53;3.43;;;23.00;1.00;;;;;;5092052;28;20862;-59
2022/10/28 12:34:50;;;;;;;13.13;3.00;;;23.20;1.00;;;;;;5075721;28;20915;-59
2022/10/28 12:37:42;;;;;;;13.80;3.45;;;23.70;1.00;;;;;;5089385;28;20953;-59
2022/10/28 12:40:20;;;;;;;15.05;3.40;;;24.20;1.00;;;;;;5091511;28;20480;-59
2022/10/28 12:43:08;;;;;;;14.50;3.50;;;24.70;1.00;;;;;;5092211;28;20538;-59
2022/10/28 12:45:34;;;;;;;9.70;2.80;;;25.00;1.00;;;;;;5092834;28;20382;-59
2022/10/28 12:48:15;;;;;;;9.80;3.30;;;24.90;1.00;;;;;;5091466;28;20374;-59
2022/10/28 12:51:02;;;;;;;16.23;3.10;;;25.00;1.00;;;;;;5093104;28;20358;-60
2022/10/28 12:53:27;;;;;;;14.07;3.50;;;25.30;1.00;;;;;;5092275;28;20369;-59
2022/10/28 12:55:59;;;;;;;11.27;3.60;;;25.40;1.00;;;;;;5074175;28;20386;-61
2022/10/28 12:58:47;;;;;;;11.73;3.28;;;25.40;1.00;;;;;;5092506;28;20485;-59
2022/10/28 13:01:15;;;;;;;10.38;3.40;;;25.20;1.00;;;;;;5091583;28;21015;-60
2022/10/28 13:03:41;;;;;;;10.68;3.30;;;25.20;1.00;;;;;;5092223;28;20378;-59
2022/10/28 13:06:36;;;;;;;8.73;2.93;;;25.10;1.00;;;;;;5091396;28;20404;-60